createdAt,value
2023-05-19T00:01:20.486Z,103004.63
2023-05-19T00:03:57.564Z,103008.09
2023-05-19T00:06:27.898Z,103004.03
2023-05-19T00:08:58.815Z,103008.25
2023-05-19T00:11:31.420Z,103002.28
2023-05-19T00:14:00.561Z,103013.84
2023-05-19T00:16:29.362Z,103014.72
2023-05-19T00:19:00.209Z,103015.59
2023-05-19T00:21:29.304Z,103014.72
2023-05-19T00:23:57.613Z,103017.44
2023-05-19T00:26:27.097Z,103020.88
2023-05-19T00:28:54.677Z,103018.13
2023-05-19T00:31:22.193Z,103026.25
2023-05-19T00:33:49.731Z,103028.88
2023-05-19T00:36:17.343Z,103038.66
2023-05-19T00:38:44.942Z,103035.09
2023-05-19T00:41:12.792Z,103040.47
2023-05-19T00:43:40.582Z,103045.75
2023-05-19T00:46:08.225Z,103050.34
2023-05-19T00:48:36.058Z,103048.66
2023-05-19T00:51:06.569Z,103051.34
2023-05-19T00:53:35.537Z,103055.72
2023-05-19T00:56:03.511Z,103071.75
2023-05-19T00:58:32.763Z,103066.56
2023-05-19T01:01:04.804Z,103076.38
2023-05-19T01:03:37.625Z,103071.84
2023-05-19T01:06:05.674Z,103077.19
2023-05-19T01:08:34.527Z,103077.16
2023-05-19T01:11:02.370Z,103085.09
2023-05-19T01:13:30.619Z,103087.84
2023-05-19T01:16:03.833Z,103080.84
2023-05-19T01:18:56.406Z,103085.47
2023-05-19T01:22:23.720Z,103086.38
2023-05-19T01:25:00.162Z,103087.31
2023-05-19T01:27:47.175Z,103089.19
2023-05-19T01:30:30.258Z,103089.09
2023-05-19T01:33:04.688Z,103086.31
2023-05-19T01:35:33.466Z,103093.50
2023-05-19T01:38:02.750Z,103094.38
2023-05-19T01:40:31.160Z,103095.25
2023-05-19T01:43:01.153Z,103092.63
2023-05-19T01:45:30.448Z,103093.41
2023-05-19T01:48:01.397Z,103087.34
2023-05-19T01:50:29.760Z,103097.13
2023-05-19T01:52:57.684Z,103100.63
2023-05-19T01:55:25.781Z,103109.59
2023-05-19T01:58:30.999Z,103109.63
2023-05-19T02:01:22.117Z,103114.00
2023-05-19T02:04:07.753Z,103119.28
2023-05-19T02:06:47.287Z,103114.00
2023-05-19T02:09:33.566Z,103115.84
2023-05-19T02:12:10.979Z,103119.38
2023-05-19T02:14:45.571Z,103114.97
2023-05-19T02:17:16.014Z,103120.34
2023-05-19T02:19:44.617Z,103120.16
2023-05-19T02:22:12.478Z,103121.94
2023-05-19T02:24:41.466Z,103124.88
2023-05-19T02:27:08.835Z,103119.66
2023-05-19T02:29:36.513Z,103129.28
2023-05-19T02:32:04.663Z,103130.22
2023-05-19T02:34:32.377Z,103126.63
2023-05-19T02:36:59.935Z,103124.75
2023-05-19T02:39:29.303Z,103122.13
2023-05-19T02:41:56.782Z,103122.03
2023-05-19T02:44:25.023Z,103120.16
2023-05-19T02:46:52.493Z,103126.22
2023-05-19T02:49:19.949Z,103117.38
2023-05-19T02:51:47.450Z,103123.50
2023-05-19T02:54:14.997Z,103122.50
2023-05-19T02:56:42.493Z,103123.22
2023-05-19T02:59:10.442Z,103121.34
2023-05-19T03:01:38.535Z,103122.16
2023-05-19T03:04:06.341Z,103126.44
2023-05-19T03:06:34.371Z,103129.69
2023-05-19T03:09:02.294Z,103127.84
2023-05-19T03:11:30.973Z,103130.38
2023-05-19T03:13:58.853Z,103128.41
2023-05-19T03:16:28.227Z,103133.53
2023-05-19T03:18:56.347Z,103133.34
2023-05-19T03:21:24.017Z,103136.75
2023-05-19T03:23:52.128Z,103138.47
2023-05-19T03:26:19.870Z,103148.03
2023-05-19T03:28:47.608Z,103140.59
2023-05-19T03:31:15.138Z,103141.34
2023-05-19T03:33:42.992Z,103143.97
2023-05-19T03:36:12.720Z,103149.22
2023-05-19T03:38:40.531Z,103147.41
2023-05-19T03:41:08.225Z,103150.03
2023-05-19T03:43:35.932Z,103147.28
2023-05-19T03:46:03.775Z,103148.88
2023-05-19T03:48:31.558Z,103158.47
2023-05-19T03:50:59.274Z,103156.56
2023-05-19T03:53:26.987Z,103154.84
2023-05-19T03:55:56.736Z,103160.78
2023-05-19T03:58:24.477Z,103157.94
2023-05-19T04:00:52.370Z,103161.44
2023-05-19T04:03:20.014Z,103166.66
2023-05-19T04:05:47.922Z,103168.31
2023-05-19T04:08:15.817Z,103162.97
2023-05-19T04:10:43.435Z,103168.09
2023-05-19T04:13:11.603Z,103170.53
2023-05-19T04:15:39.195Z,103174.25
2023-05-19T04:18:07.037Z,103176.75
2023-05-19T04:20:34.919Z,103176.75
2023-05-19T04:23:02.508Z,103172.13
2023-05-19T04:25:30.040Z,103172.72
2023-05-19T04:27:58.021Z,103176.91
2023-05-19T04:30:25.784Z,103175.03
2023-05-19T04:32:53.510Z,103172.28
2023-05-19T04:35:21.366Z,103173.91
2023-05-19T04:37:49.164Z,103182.66
2023-05-19T04:40:17.454Z,103185.25
2023-05-19T04:42:46.161Z,103183.41
2023-05-19T04:45:14.276Z,103182.41
2023-05-19T04:47:42.515Z,103183.09
2023-05-19T04:50:11.387Z,103182.03
2023-05-19T04:52:38.840Z,103180.97
2023-05-19T04:55:06.721Z,103180.84
2023-05-19T04:57:34.558Z,103181.34
2023-05-19T05:00:02.063Z,103190.69
2023-05-19T05:02:29.566Z,103185.16
2023-05-19T05:04:58.119Z,103183.91
2023-05-19T05:07:25.914Z,103188.66
2023-05-19T05:09:53.386Z,103180.28
2023-05-19T05:12:21.875Z,103185.09
2023-05-19T05:14:49.970Z,103190.91
2023-05-19T05:17:18.014Z,103185.56
2023-05-19T05:19:46.039Z,103192.59
2023-05-19T05:22:13.924Z,103193.50
2023-05-19T05:24:41.986Z,103194.81
2023-05-19T05:27:10.441Z,103200.59
2023-05-19T05:29:38.042Z,103202.38
2023-05-19T05:32:05.983Z,103198.44
2023-05-19T05:34:34.012Z,103209.88
2023-05-19T05:37:01.766Z,103208.63
2023-05-19T05:39:29.620Z,103202.72
2023-05-19T05:41:57.397Z,103208.59
2023-05-19T05:44:24.892Z,103205.50
2023-05-19T05:46:52.908Z,103203.38
2023-05-19T05:49:21.076Z,103206.06
2023-05-19T05:52:04.416Z,103204.66
2023-05-19T05:54:34.117Z,103205.09
2023-05-19T05:57:02.616Z,103201.06
2023-05-19T05:59:30.151Z,103201.09
2023-05-19T06:01:57.697Z,103201.09
2023-05-19T06:04:25.833Z,103211.41
2023-05-19T06:06:53.862Z,103208.75
2023-05-19T06:09:21.463Z,103209.66
2023-05-19T06:11:49.040Z,103211.31
2023-05-19T06:14:16.864Z,103218.59
2023-05-19T06:16:44.530Z,103222.22
2023-05-19T06:19:12.328Z,103222.06
2023-05-19T06:21:39.891Z,103206.66
2023-05-19T06:24:07.710Z,103218.03
2023-05-19T06:26:35.101Z,103211.53
2023-05-19T06:29:02.891Z,103213.41
2023-05-19T06:31:31.429Z,103210.91
2023-05-19T06:33:59.308Z,103250.03
2023-05-19T06:36:27.103Z,103247.91
2023-05-19T06:38:54.868Z,103237.25
2023-05-19T06:41:22.481Z,103228.97
2023-05-19T06:43:49.979Z,103221.63
2023-05-19T06:46:17.979Z,103207.97
2023-05-19T06:48:45.539Z,103210.03
2023-05-19T06:51:13.349Z,103214.34
2023-05-19T06:53:41.091Z,103213.34
2023-05-19T06:56:08.688Z,103203.84
2023-05-19T06:58:36.468Z,103197.81
2023-05-19T07:01:04.212Z,103202.00
2023-05-19T07:03:31.796Z,103204.63
2023-05-19T07:05:59.799Z,103197.13
2023-05-19T07:08:27.904Z,103203.53
2023-05-19T07:10:56.170Z,103205.84
2023-05-19T07:13:25.379Z,103208.81
2023-05-19T07:15:58.132Z,103216.59
2023-05-19T07:18:25.792Z,103221.41
2023-05-19T07:20:53.972Z,103217.03
2023-05-19T07:23:21.715Z,103216.19
2023-05-19T07:25:49.642Z,103208.94
2023-05-19T07:28:17.363Z,103217.47
2023-05-19T07:30:45.166Z,103214.72
2023-05-19T07:33:13.101Z,103215.38
2023-05-19T07:35:40.840Z,103213.06
2023-05-19T07:38:08.685Z,103219.19
2023-05-19T07:40:36.483Z,103217.19
2023-05-19T07:43:04.257Z,103213.53
2023-05-19T07:45:32.204Z,103219.41
2023-05-19T07:47:59.963Z,103221.47
2023-05-19T07:50:27.757Z,103216.78
2023-05-19T07:52:55.926Z,103216.63
2023-05-19T07:55:23.409Z,103223.81
2023-05-19T07:57:51.058Z,103216.19
2023-05-19T08:00:19.966Z,103213.69
2023-05-19T08:02:47.524Z,103222.56
2023-05-19T08:05:15.404Z,103220.34
2023-05-19T08:07:43.132Z,103237.09
2023-05-19T08:10:10.894Z,103235.13
2023-05-19T08:12:38.396Z,103236.66
2023-05-19T08:15:06.513Z,103242.50
2023-05-19T08:17:34.006Z,103239.06
2023-05-19T08:20:01.505Z,103240.97
2023-05-19T08:22:29.098Z,103238.16
2023-05-19T08:24:57.025Z,103245.44
2023-05-19T08:27:24.919Z,103248.47
2023-05-19T08:29:52.688Z,103255.47
2023-05-19T08:32:20.785Z,103250.31
2023-05-19T08:34:48.269Z,103245.28
2023-05-19T08:37:16.259Z,103249.91
2023-05-19T08:39:44.098Z,103241.53
2023-05-19T08:42:12.521Z,103243.28
2023-05-19T08:44:41.332Z,103246.91
2023-05-19T08:47:13.822Z,103244.72
2023-05-19T08:49:46.363Z,103245.13
2023-05-19T08:52:32.097Z,103253.50
2023-05-19T08:55:13.168Z,103255.31
2023-05-19T08:57:41.637Z,103247.81
2023-05-19T09:00:12.244Z,103245.13
2023-05-19T09:02:50.546Z,103251.72
2023-05-19T09:05:28.379Z,103247.28
2023-05-19T09:07:57.176Z,103242.66
2023-05-19T09:10:25.293Z,103247.94
2023-05-19T09:12:53.672Z,103252.78
2023-05-19T09:15:25.943Z,103246.66
2023-05-19T09:18:13.703Z,103241.59
2023-05-19T09:20:43.462Z,103237.56
2023-05-19T09:23:17.514Z,103234.97
2023-05-19T09:25:49.564Z,103243.72
2023-05-19T09:28:24.510Z,103247.53
2023-05-19T09:31:09.255Z,103244.19
2023-05-19T09:33:46.183Z,103246.38
2023-05-19T09:36:14.217Z,103245.91
2023-05-19T09:38:41.881Z,103242.25
2023-05-19T09:41:09.876Z,103244.75
2023-05-19T09:43:37.495Z,103242.66
2023-05-19T09:46:06.779Z,103239.19
2023-05-19T09:48:37.521Z,103242.34
2023-05-19T09:51:08.155Z,103245.72
2023-05-19T09:53:36.479Z,103241.88
2023-05-19T09:56:04.204Z,103236.72
2023-05-19T09:58:35.300Z,103238.13
2023-05-19T10:01:07.061Z,103237.94
2023-05-19T10:03:35.142Z,103240.25
2023-05-19T10:06:04.671Z,103234.75
2023-05-19T10:08:33.857Z,103238.03
2023-05-19T10:11:02.504Z,103234.78
2023-05-19T10:13:32.135Z,103229.06
2023-05-19T10:16:00.772Z,103236.81
2023-05-19T10:18:29.793Z,103233.28
2023-05-19T10:20:58.739Z,103233.44
2023-05-19T10:23:27.055Z,103239.00
2023-05-19T10:25:59.302Z,103238.69
2023-05-19T10:28:39.197Z,103238.28
2023-05-19T10:31:09.829Z,103244.00
2023-05-19T10:33:58.763Z,103247.00
2023-05-19T10:36:28.969Z,103245.03
2023-05-19T10:39:06.664Z,103240.72
2023-05-19T10:41:51.096Z,103235.22
2023-05-19T10:44:40.166Z,103238.88
2023-05-19T10:47:08.714Z,103232.41
2023-05-19T10:49:36.888Z,103239.00
2023-05-19T10:52:18.838Z,103231.44
2023-05-19T10:54:46.373Z,103240.75
2023-05-19T10:57:17.517Z,103242.38
2023-05-19T10:59:45.775Z,103240.31
2023-05-19T11:02:38.845Z,103233.09
2023-05-19T11:05:18.515Z,103232.53
2023-05-19T11:07:56.446Z,103238.25
2023-05-19T11:10:24.757Z,103233.91
2023-05-19T11:12:52.546Z,103239.63
2023-05-19T11:15:26.328Z,103234.09
2023-05-19T11:17:54.618Z,103232.47
2023-05-19T11:20:29.318Z,103232.47
2023-05-19T11:23:06.926Z,103234.47
2023-05-19T11:25:51.392Z,103229.03
2023-05-19T11:28:25.854Z,103232.50
2023-05-19T11:30:57.556Z,103229.28
2023-05-19T11:33:29.299Z,103230.78
2023-05-19T11:36:00.507Z,103229.47
2023-05-19T11:38:30.168Z,103229.72
2023-05-19T11:40:58.358Z,103230.91
2023-05-19T11:43:26.447Z,103231.59
2023-05-19T11:45:55.976Z,103228.88
2023-05-19T11:48:24.965Z,103221.72
2023-05-19T11:50:52.890Z,103228.38
2023-05-19T11:53:21.091Z,103223.38
2023-05-19T11:55:49.656Z,103224.56
2023-05-19T11:58:17.726Z,103221.13
2023-05-19T12:00:48.344Z,103229.91
2023-05-19T12:03:17.540Z,103227.75
2023-05-19T12:05:48.386Z,103228.38
2023-05-19T12:08:19.909Z,103227.34
2023-05-19T12:10:51.028Z,103218.72
2023-05-19T12:13:19.581Z,103227.06
2023-05-19T12:15:47.441Z,103230.38
2023-05-19T12:18:15.259Z,103221.22
2023-05-19T12:20:43.374Z,103223.53
2023-05-19T12:23:12.422Z,103225.09
2023-05-19T12:25:40.444Z,103230.19
2023-05-19T12:28:08.407Z,103224.56
2023-05-19T12:30:36.166Z,103223.72
2023-05-19T12:33:04.508Z,103227.34
2023-05-19T12:35:36.280Z,103224.16
2023-05-19T12:38:06.279Z,103228.81
2023-05-19T12:40:35.692Z,103225.09
2023-05-19T12:43:04.382Z,103227.19
2023-05-19T12:45:40.118Z,103230.81
2023-05-19T12:48:16.727Z,103231.03
2023-05-19T12:50:45.334Z,103236.66
2023-05-19T12:53:14.208Z,103232.59
2023-05-19T12:55:45.646Z,103228.91
2023-05-19T12:58:15.888Z,103237.78
2023-05-19T13:00:48.481Z,103231.50
2023-05-19T13:03:18.985Z,103231.75
2023-05-19T13:05:49.052Z,103240.53
2023-05-19T13:08:22.071Z,103230.97
2023-05-19T13:10:50.416Z,103223.50
2023-05-19T13:13:18.280Z,103232.31
2023-05-19T13:15:48.942Z,103230.53
2023-05-19T13:18:17.334Z,103221.22
2023-05-19T13:20:46.523Z,103222.75
2023-05-19T13:23:14.413Z,103218.59
2023-05-19T13:25:42.708Z,103212.00
2023-05-19T13:28:11.206Z,103210.59
2023-05-19T13:30:40.581Z,103211.28
2023-05-19T13:33:08.253Z,103209.13
2023-05-19T13:35:39.070Z,103208.97
2023-05-19T13:38:09.813Z,103208.19
2023-05-19T13:40:39.708Z,103212.00
2023-05-19T13:43:08.719Z,103211.28
2023-05-19T13:45:36.999Z,103205.88
2023-05-19T13:48:07.358Z,103208.31
2023-05-19T13:50:35.348Z,103214.28
2023-05-19T13:53:03.824Z,103214.47
2023-05-19T13:55:32.819Z,103206.75
2023-05-19T13:58:00.328Z,103208.31
2023-05-19T14:00:27.873Z,103204.06
2023-05-19T14:02:56.008Z,103207.38
2023-05-19T14:05:23.840Z,103210.28
2023-05-19T14:07:51.715Z,103212.06
2023-05-19T14:10:19.573Z,103212.06
2023-05-19T14:13:14.013Z,103209.81
2023-05-19T14:15:37.925Z,103211.22
2023-05-19T14:18:07.099Z,103208.53
2023-05-19T14:20:35.226Z,103207.06
2023-05-19T14:23:03.349Z,103203.19
2023-05-19T14:25:30.951Z,103193.88
2023-05-19T14:27:58.465Z,103197.25
2023-05-19T14:30:25.993Z,103200.78
2023-05-19T14:32:53.509Z,103191.84
2023-05-19T14:35:21.324Z,103194.91
2023-05-19T14:37:49.008Z,103204.50
2023-05-19T14:40:16.680Z,103201.34
2023-05-19T14:42:44.486Z,103194.41
2023-05-19T14:45:12.428Z,103201.34
2023-05-19T14:47:39.920Z,103198.03
2023-05-19T14:50:07.620Z,103197.50
2023-05-19T14:52:35.308Z,103195.44
2023-05-19T14:55:03.376Z,103195.84
2023-05-19T14:57:31.155Z,103196.47
2023-05-19T14:59:58.598Z,103192.59
2023-05-19T15:02:27.525Z,103191.66
2023-05-19T15:04:56.418Z,103194.31
2023-05-19T15:07:24.690Z,103190.78
2023-05-19T15:09:52.297Z,103194.31
2023-05-19T15:12:20.006Z,103197.88
2023-05-19T15:14:47.464Z,103196.69
2023-05-19T15:17:15.030Z,103197.44
2023-05-19T15:19:43.134Z,103199.53
2023-05-19T15:22:10.888Z,103194.69
2023-05-19T15:24:38.421Z,103200.72
2023-05-19T15:27:06.043Z,103188.06
2023-05-19T15:29:33.603Z,103185.31
2023-05-19T15:32:02.036Z,103184.44
2023-05-19T15:34:29.542Z,103191.66
2023-05-19T15:36:57.156Z,103194.25
2023-05-19T15:39:24.814Z,103186.31
2023-05-19T15:41:52.569Z,103188.28
2023-05-19T15:44:20.113Z,103190.84
2023-05-19T15:46:47.911Z,103187.59
2023-05-19T15:49:15.725Z,103178.56
2023-05-19T15:51:43.933Z,103178.38
2023-05-19T15:54:11.522Z,103187.25
2023-05-19T15:56:39.055Z,103184.50
2023-05-19T15:59:06.866Z,103180.19
2023-05-19T16:01:34.702Z,103182.97
2023-05-19T16:04:04.000Z,103187.50
2023-05-19T16:06:32.029Z,103174.94
2023-05-19T16:08:59.924Z,103187.31
2023-05-19T16:11:27.789Z,103182.34
2023-05-19T16:13:55.611Z,103184.41
2023-05-19T16:16:23.255Z,103183.59
2023-05-19T16:18:51.242Z,103186.13
2023-05-19T16:21:19.019Z,103180.81
2023-05-19T16:23:46.615Z,103186.63
2023-05-19T16:26:14.333Z,103184.97
2023-05-19T16:28:41.941Z,103183.78
2023-05-19T16:31:09.589Z,103183.00
2023-05-19T16:33:37.388Z,103185.84
2023-05-19T16:36:06.480Z,103179.06
2023-05-19T16:38:34.184Z,103175.75
2023-05-19T16:41:01.719Z,103178.34
2023-05-19T16:43:29.197Z,103187.34
2023-05-19T16:45:57.150Z,103185.56
2023-05-19T16:48:24.988Z,103181.09
2023-05-19T16:50:52.766Z,103192.84
2023-05-19T16:53:20.263Z,103186.59
2023-05-19T16:55:47.773Z,103193.03
2023-05-19T16:58:15.382Z,103182.41
2023-05-19T17:00:43.477Z,103177.53
2023-05-19T17:03:11.670Z,103173.06
2023-05-19T17:05:41.980Z,103177.16
2023-05-19T17:08:09.998Z,103182.66
2023-05-19T17:10:39.271Z,103180.75
2023-05-19T17:13:07.407Z,103182.41
2023-05-19T17:15:35.197Z,103179.28
2023-05-19T17:18:02.961Z,103187.69
2023-05-19T17:20:30.505Z,103187.69
2023-05-19T17:22:58.347Z,103176.78
2023-05-19T17:25:26.196Z,103180.25
2023-05-19T17:27:55.191Z,103186.91
2023-05-19T17:30:22.726Z,103176.78
2023-05-19T17:32:51.093Z,103175.94
2023-05-19T17:35:18.962Z,103175.22
2023-05-19T17:37:46.684Z,103179.78
2023-05-19T17:40:14.392Z,103184.41
2023-05-19T17:42:41.884Z,103185.22
2023-05-19T17:45:12.144Z,103176.53
2023-05-19T17:47:39.747Z,103181.41
2023-05-19T17:50:07.894Z,103183.44
2023-05-19T17:52:36.279Z,103185.22
2023-05-19T17:55:04.596Z,103184.53
2023-05-19T17:57:34.104Z,103176.69
2023-05-19T18:00:03.065Z,103175.66
2023-05-19T18:02:30.929Z,103173.09
2023-05-19T18:04:58.979Z,103175.03
2023-05-19T18:07:27.903Z,103173.63
2023-05-19T18:09:56.324Z,103170.97
2023-05-19T18:12:24.080Z,103175.78
2023-05-19T18:14:51.823Z,103174.91
2023-05-19T18:17:20.080Z,103177.72
2023-05-19T18:19:49.398Z,103176.56
2023-05-19T18:22:17.749Z,103177.28
2023-05-19T18:24:45.405Z,103177.22
2023-05-19T18:27:12.922Z,103177.13
2023-05-19T18:29:40.488Z,103180.03
2023-05-19T18:32:08.395Z,103179.25
2023-05-19T18:34:36.292Z,103179.91
2023-05-19T18:37:04.314Z,103189.06
2023-05-19T18:39:31.861Z,103183.22
2023-05-19T18:41:59.658Z,103193.88
2023-05-19T18:44:27.445Z,103193.38
2023-05-19T18:46:55.251Z,103200.34
2023-05-19T18:49:25.117Z,103195.38
2023-05-19T18:51:53.070Z,103196.53
2023-05-19T18:54:21.771Z,103194.50
2023-05-19T18:56:49.281Z,103195.09
2023-05-19T18:59:16.731Z,103193.25
2023-05-19T19:01:45.267Z,103199.69
2023-05-19T19:04:14.916Z,103198.22
2023-05-19T19:06:43.879Z,103199.47
2023-05-19T19:09:11.592Z,103206.81
2023-05-19T19:11:39.208Z,103210.25
2023-05-19T19:14:07.600Z,103207.75
2023-05-19T19:16:35.524Z,103210.72
2023-05-19T19:19:03.685Z,103199.31
2023-05-19T19:21:31.677Z,103202.84
2023-05-19T19:23:59.344Z,103197.03
2023-05-19T19:26:29.446Z,103199.19
2023-05-19T19:28:56.960Z,103198.31
2023-05-19T19:31:31.025Z,103197.41
2023-05-19T19:34:03.082Z,103199.00
2023-05-19T19:36:31.917Z,103195.53
2023-05-19T19:38:59.832Z,103197.53
2023-05-19T19:41:29.740Z,103198.78
2023-05-19T19:43:57.711Z,103196.25
2023-05-19T19:46:25.362Z,103198.84
2023-05-19T19:48:52.873Z,103206.88
2023-05-19T19:51:20.632Z,103207.16
2023-05-19T19:53:48.178Z,103209.00
2023-05-19T19:56:16.199Z,103211.66
2023-05-19T19:58:43.959Z,103206.50
2023-05-19T20:01:11.807Z,103211.25
2023-05-19T20:03:39.591Z,103211.25
2023-05-19T20:06:07.797Z,103210.59
2023-05-19T20:08:35.880Z,103212.38
2023-05-19T20:11:03.520Z,103209.84
2023-05-19T20:13:32.809Z,103218.25
2023-05-19T20:16:01.184Z,103212.16
2023-05-19T20:18:29.969Z,103212.28
2023-05-19T20:20:57.752Z,103215.47
2023-05-19T20:23:25.614Z,103213.06
2023-05-19T20:26:10.921Z,103213.94
2023-05-19T20:28:40.339Z,103224.38
2023-05-19T20:31:08.185Z,103219.28
2023-05-19T20:33:36.018Z,103218.81
2023-05-19T20:36:05.637Z,103225.28
2023-05-19T20:38:33.406Z,103223.09
2023-05-19T20:41:02.019Z,103228.41
2023-05-19T20:43:29.794Z,103224.44
2023-05-19T20:45:57.295Z,103231.06
2023-05-19T20:48:24.999Z,103230.22
2023-05-19T20:50:54.269Z,103239.19
2023-05-19T20:53:21.820Z,103230.84
2023-05-19T20:55:49.269Z,103232.56
2023-05-19T20:58:16.759Z,103233.59
2023-05-19T21:00:44.683Z,103240.34
2023-05-19T21:03:12.505Z,103246.78
2023-05-19T21:05:40.535Z,103249.78
2023-05-19T21:08:12.859Z,103253.69
2023-05-19T21:10:41.102Z,103248.41
2023-05-19T21:13:08.943Z,103257.38
2023-05-19T21:15:36.748Z,103253.22
2023-05-19T21:18:04.524Z,103248.19
2023-05-19T21:20:32.572Z,103252.03
2023-05-19T21:23:00.661Z,103256.34
2023-05-19T21:25:28.290Z,103253.50
2023-05-19T21:27:58.320Z,103254.59
2023-05-19T21:30:26.005Z,103268.84
2023-05-19T21:32:53.663Z,103263.59
2023-05-19T21:35:21.593Z,103259.50
2023-05-19T21:37:49.376Z,103253.47
2023-05-19T21:40:17.120Z,103253.69
2023-05-19T21:42:44.811Z,103253.66
2023-05-19T21:45:12.594Z,103259.84
2023-05-19T21:47:40.457Z,103265.28
2023-05-19T21:50:08.623Z,103263.66
2023-05-19T21:52:36.660Z,103261.19
2023-05-19T21:55:04.397Z,103260.25
2023-05-19T21:57:31.924Z,103258.69
2023-05-19T21:59:59.438Z,103259.06
2023-05-19T22:02:26.898Z,103259.78
2023-05-19T22:04:54.404Z,103258.22
2023-05-19T22:07:26.890Z,103255.88
2023-05-19T22:09:54.869Z,103255.22
2023-05-19T22:12:23.490Z,103254.63
2023-05-19T22:14:51.373Z,103253.50
2023-05-19T22:17:18.878Z,103250.84
2023-05-19T22:19:46.491Z,103249.31
2023-05-19T22:22:14.849Z,103251.88
2023-05-19T22:24:42.861Z,103258.75
2023-05-19T22:27:10.746Z,103254.28
2023-05-19T22:29:38.968Z,103261.53
2023-05-19T22:32:12.059Z,103264.22
2023-05-19T22:34:41.063Z,103259.03
2023-05-19T22:37:08.927Z,103254.16
2023-05-19T22:39:36.901Z,103262.47
2023-05-19T22:42:05.435Z,103257.31
2023-05-19T22:44:33.226Z,103255.00
2023-05-19T22:47:00.707Z,103258.66
2023-05-19T22:49:29.924Z,103253.34
2023-05-19T22:51:57.761Z,103261.03
2023-05-19T22:54:25.384Z,103265.00
2023-05-19T22:56:53.078Z,103265.81
2023-05-19T22:59:21.633Z,103275.66
2023-05-19T23:01:49.193Z,103276.59
2023-05-19T23:04:17.191Z,103276.53
2023-05-19T23:06:45.298Z,103278.13
2023-05-19T23:09:13.229Z,103281.94
2023-05-19T23:11:40.814Z,103285.66
2023-05-19T23:14:08.324Z,103285.91
2023-05-19T23:16:35.825Z,103290.19
2023-05-19T23:19:03.332Z,103292.06
2023-05-19T23:21:32.532Z,103289.53
2023-05-19T23:24:00.437Z,103302.13
2023-05-19T23:26:27.995Z,103293.94
2023-05-19T23:28:55.539Z,103297.69
2023-05-19T23:31:23.159Z,103288.75
2023-05-19T23:33:51.038Z,103296.19
2023-05-19T23:36:19.299Z,103298.69
2023-05-19T23:38:46.779Z,103298.75
2023-05-19T23:41:14.872Z,103298.84
2023-05-19T23:43:42.713Z,103297.44
2023-05-19T23:46:10.703Z,103299.13
2023-05-19T23:48:38.522Z,103293.25
2023-05-19T23:51:06.315Z,103295.00
2023-05-19T23:53:33.775Z,103292.59
2023-05-19T23:56:01.804Z,103295.56
2023-05-19T23:58:29.673Z,103296.25
